CheckWX is a tool to help pilots better visualize weather data.  It is not intended as a substitute for an official pre-flight weather briefing.

12:30:12 UTC

KHVS METAR
Hartsville Regional Airport
Hartsville, South Carolina, USA
Current

35 mins ago

KHVS 201155Z AUTO 00000KT 7SM SCT008 23/23 A3014 RMK AO2
Observed
Aug-20 @ 11:55 UTC
Visibility
7 SM
Flight Rules
VFR
Cloud Levels
  • Scattered at 800' AGL
Temperature
23°C / 73°F
Dewpoint
23°C / 73°F
Humidity
100%
Altimeter
30.14" Hg
Pressure
1020.62 hPa
Previous

55 mins ago

KHVS 201135Z AUTO 00000KT 7SM OVC008 23/23 A3013 RMK AO2
Observed
Aug-20 @ 11:35 UTC
Visibility
7 SM
Flight Rules
IFR
Cloud Levels
  • Overcast at 800' AGL
Temperature
23°C / 73°F
Dewpoint
23°C / 73°F
Humidity
100%
Altimeter
30.13" Hg
Pressure
1020.32 hPa
Previous

1 hour ago

KHVS 201115Z AUTO 00000KT 7SM OVC008 23/23 A3012 RMK AO2
Observed
Aug-20 @ 11:15 UTC
Visibility
7 SM
Flight Rules
IFR
Cloud Levels
  • Overcast at 800' AGL
Temperature
23°C / 73°F
Dewpoint
23°C / 73°F
Humidity
100%
Altimeter
30.12" Hg
Pressure
1020.02 hPa